Ellwood City, Pennsylvania
Current Conditions -  °F | °C
As of 1:35 AM on Tuesday 21 Oct 2014 (Local Time) from KBTP Reporting Station
Overcast Overcast  
Wind Chill: 48°   Ceiling: 1500
Heat Index: 48°   Visibility: 10mi
Dew Point: 45°   Wind: 3mph
Humidity: 87%   Direction: 210°SSW
Pressure: 29.87"   Gusts: NA
Location:  40.86°N, 80.29°W
Report Text: KBTP 210535Z AUTO 21003KT 10SM OVC015 09/07 A2987 RMK AO1
Loading
Personal Weather Stations






























Interactive Weather Map New forecast layout! Learn more

10-Day Weather Forecast

Advertisements
Track Severe Weather on mobile